KPHT/PHT METAR and TAF weather

Enter ICAO airport designator
Station Type Date Time Source
KPHT METAR 2020/04/02 00:15 UTC NOAA

KPHT 020015Z AUTO 01003KT 10SM CLR 13/03 A3004 RMK A01


Station Type Date Time Source
KPHT Decoded METAR 2020/04/02 00:15 UTC NOAA

Station name not available
Apr 01, 2020 - 08:15 PM EDT / 2020.04.02 0015 UTC
Wind: from the N (010 degrees) at 3 MPH (3 KT):0
Visibility: 10 mile(s):0
Sky conditions: clear
Temperature: 55 F (13 C)
Dew Point: 37 F (3 C)
Relative Humidity: 50%
Pressure (altimeter): 30.04 in. Hg (1017 hPa)
ob: KPHT 020015Z AUTO 01003KT 10SM CLR 13/03 A3004 RMK A01
cycle: 0

Station Type Date Time Source
KPHT TAF UTC NOAA

Error!

Example: see airport list